Time;durP1;ratioP1;P1;durP2;ratioP2;P2;SDS_P1;SDS_P2;PMS_P1;PMS_P2;Temp;Humidity;BMP_temperature;BMP_pressure;BME280_temperature;BME280_humidity;BME280_pressure;Samples;Min_cycle;Max_cycle;Signal;HPM_P1;HPM_P2
2022/01/29 00:00:21;;;;;;;18.00;12.07;;;6.30;99.90;;;;;;5053104;28;20525;-79
2022/01/29 00:02:48;;;;;;;21.50;12.60;;;6.30;99.90;;;;;;5066325;28;20447;-79
2022/01/29 00:05:15;;;;;;;18.57;11.37;;;6.30;99.90;;;;;;5065023;28;21284;-79
2022/01/29 00:07:42;;;;;;;19.63;12.00;;;6.30;99.90;;;;;;5059801;28;20491;-79
2022/01/29 00:10:10;;;;;;;20.10;12.90;;;6.40;99.90;;;;;;5056405;28;20452;-79
2022/01/29 00:12:39;;;;;;;20.20;11.67;;;6.40;99.90;;;;;;5066465;28;20445;-79
2022/01/29 00:15:07;;;;;;;19.13;12.80;;;6.40;99.90;;;;;;5079743;28;20513;-80
2022/01/29 00:17:34;;;;;;;19.67;12.03;;;6.40;99.90;;;;;;5048352;28;20457;-79
2022/01/29 00:20:00;;;;;;;23.87;14.40;;;6.50;99.90;;;;;;5066593;28;20573;-79
2022/01/29 00:22:28;;;;;;;25.00;13.47;;;6.50;99.90;;;;;;5065530;28;20458;-79
2022/01/29 00:24:56;;;;;;;20.30;11.67;;;6.40;99.90;;;;;;5064242;28;20458;-79
2022/01/29 00:27:25;;;;;;;21.77;13.90;;;6.50;99.90;;;;;;5055904;28;20450;-79
2022/01/29 00:29:54;;;;;;;20.00;13.30;;;6.50;99.90;;;;;;5067706;28;21056;-79
2022/01/29 00:32:21;;;;;;;23.03;14.80;;;6.50;99.90;;;;;;5062736;28;20951;-79
2022/01/29 00:34:48;;;;;;;25.13;15.53;;;6.50;99.90;;;;;;5051591;28;20454;-80
2022/01/29 00:37:15;;;;;;;27.30;15.80;;;6.50;99.90;;;;;;5059047;28;20467;-79
2022/01/29 00:39:41;;;;;;;27.70;15.27;;;6.50;99.90;;;;;;5065320;28;20957;-80
2022/01/29 00:42:09;;;;;;;23.40;16.60;;;6.40;99.90;;;;;;5050306;28;20479;-79
2022/01/29 00:44:35;;;;;;;29.70;17.20;;;6.50;99.90;;;;;;5060882;28;20570;-79
2022/01/29 00:47:04;;;;;;;23.53;15.63;;;6.50;99.90;;;;;;5060036;28;20453;-79
2022/01/29 00:49:31;;;;;;;26.43;15.20;;;6.50;99.90;;;;;;5044249;28;20467;-79
2022/01/29 00:51:58;;;;;;;24.47;15.43;;;6.40;99.90;;;;;;5054063;28;20451;-79
2022/01/29 00:54:24;;;;;;;33.60;17.60;;;6.40;99.90;;;;;;5052276;28;20455;-79
2022/01/29 00:56:51;;;;;;;31.10;17.17;;;6.40;99.90;;;;;;5044356;28;20547;-79
2022/01/29 00:59:18;;;;;;;28.53;16.97;;;6.30;99.90;;;;;;5053525;28;20478;-79
2022/01/29 01:01:45;;;;;;;27.70;16.17;;;6.40;99.90;;;;;;5086389;28;20513;-78
2022/01/29 01:04:13;;;;;;;30.07;16.80;;;6.40;99.90;;;;;;5075761;28;20530;-79
2022/01/29 01:06:40;;;;;;;29.60;18.30;;;6.40;99.90;;;;;;5066860;28;20455;-79
2022/01/29 01:09:07;;;;;;;28.80;16.13;;;6.30;99.90;;;;;;5063460;28;20508;-79
2022/01/29 01:11:34;;;;;;;28.30;18.23;;;6.40;99.90;;;;;;5048125;28;20511;-79
2022/01/29 01:14:00;;;;;;;27.17;17.13;;;6.40;99.90;;;;;;5065605;28;20454;-79
2022/01/29 01:16:27;;;;;;;29.20;16.33;;;6.40;99.90;;;;;;5069208;28;20455;-79
2022/01/29 01:18:54;;;;;;;31.67;16.30;;;6.50;99.90;;;;;;5064964;28;20484;-78
2022/01/29 01:21:22;;;;;;;26.70;15.73;;;6.50;99.90;;;;;;5067277;28;20493;-79
2022/01/29 01:23:49;;;;;;;29.93;15.97;;;6.50;99.90;;;;;;5068235;28;20569;-79
2022/01/29 01:26:16;;;;;;;27.70;17.40;;;6.60;99.90;;;;;;5067180;28;20472;-79
2022/01/29 01:28:43;;;;;;;25.50;16.80;;;6.50;99.90;;;;;;5069532;28;20526;-79
2022/01/29 01:31:10;;;;;;;34.30;17.20;;;6.50;99.90;;;;;;5056514;28;21017;-80
2022/01/29 01:33:36;;;;;;;31.37;16.63;;;6.50;99.90;;;;;;5048545;28;20487;-81
2022/01/29 01:36:04;;;;;;;32.57;18.03;;;6.60;99.90;;;;;;5062885;28;20450;-80
2022/01/29 01:38:40;;;;;;;33.13;16.63;;;6.60;99.90;;;;;;5068812;28;20836;-79
2022/01/29 01:41:10;;;;;;;34.27;19.57;;;6.60;99.90;;;;;;5073406;28;20498;-79
2022/01/29 01:43:37;;;;;;;29.60;17.40;;;6.60;99.90;;;;;;5079094;28;20521;-80
2022/01/29 01:46:04;;;;;;;34.10;18.67;;;6.60;99.90;;;;;;5068220;28;20445;-80
2022/01/29 01:48:31;;;;;;;29.63;18.13;;;6.60;99.90;;;;;;5084843;28;20466;-79
2022/01/29 01:50:59;;;;;;;32.30;18.83;;;6.60;99.90;;;;;;5078771;28;20475;-80
2022/01/29 01:53:25;;;;;;;26.20;16.10;;;6.60;99.90;;;;;;5079176;28;20455;-79
2022/01/29 01:55:54;;;;;;;29.47;17.80;;;6.60;99.90;;;;;;5064813;28;20452;-79
2022/01/29 01:58:20;;;;;;;29.43;17.77;;;6.60;99.90;;;;;;5047577;28;20482;-80
2022/01/29 02:00:47;;;;;;;32.80;19.37;;;6.70;99.90;;;;;;5058425;28;20561;-80
2022/01/29 02:03:14;;;;;;;31.10;18.30;;;6.60;99.90;;;;;;5067825;28;20460;-79
2022/01/29 02:05:41;;;;;;;29.13;17.60;;;6.60;99.90;;;;;;5047373;28;20487;-80
2022/01/29 02:08:08;;;;;;;29.80;17.70;;;6.70;99.90;;;;;;5065401;28;20481;-79
2022/01/29 02:10:35;;;;;;;33.23;19.57;;;6.60;99.90;;;;;;5053953;28;20470;-80
2022/01/29 02:13:04;;;;;;;26.97;17.90;;;6.70;99.90;;;;;;5046212;28;20514;-79
2022/01/29 02:15:32;;;;;;;28.97;18.13;;;6.70;99.90;;;;;;5045931;28;20463;-79
2022/01/29 02:17:59;;;;;;;34.53;19.50;;;6.70;99.90;;;;;;5055908;28;20492;-79
2022/01/29 02:20:28;;;;;;;30.17;19.30;;;6.50;99.90;;;;;;5066484;28;20491;-80
2022/01/29 02:22:56;;;;;;;32.87;20.43;;;6.60;99.90;;;;;;5063288;28;20445;-79
2022/01/29 02:25:36;;;;;;;31.30;18.20;;;6.60;99.90;;;;;;5066903;28;20462;-79
2022/01/29 02:28:06;;;;;;;38.47;20.67;;;6.60;99.90;;;;;;5064358;28;20478;-79
2022/01/29 02:30:34;;;;;;;33.77;20.70;;;6.60;99.90;;;;;;5053320;28;20539;-79
2022/01/29 02:33:03;;;;;;;33.73;19.63;;;6.60;99.90;;;;;;5052822;28;20843;-79
2022/01/29 02:35:30;;;;;;;31.57;19.53;;;6.60;99.90;;;;;;5067637;28;22177;-80
2022/01/29 02:37:59;;;;;;;35.00;21.10;;;6.60;99.90;;;;;;5079179;28;20472;-79
2022/01/29 02:40:26;;;;;;;34.20;21.63;;;6.60;99.90;;;;;;5059585;28;20940;-79
2022/01/29 02:42:55;;;;;;;28.50;19.33;;;6.60;99.90;;;;;;5056959;28;20478;-79
2022/01/29 02:45:22;;;;;;;36.73;20.57;;;6.60;99.90;;;;;;5053293;28;20469;-79
2022/01/29 02:47:49;;;;;;;26.40;19.53;;;6.60;99.90;;;;;;5066828;28;20484;-79
2022/01/29 02:50:16;;;;;;;29.70;19.20;;;6.60;99.90;;;;;;5063869;28;20530;-79
2022/01/29 02:52:43;;;;;;;36.30;20.23;;;6.70;99.90;;;;;;5066610;28;20813;-78
2022/01/29 02:55:11;;;;;;;31.87;20.60;;;6.60;99.90;;;;;;5065066;28;20467;-79
2022/01/29 02:57:38;;;;;;;33.27;20.07;;;6.50;99.90;;;;;;5059007;28;20477;-79
2022/01/29 03:00:10;;;;;;;30.40;19.13;;;6.50;99.90;;;;;;5059310;28;20458;-79
2022/01/29 03:02:38;;;;;;;33.07;19.23;;;6.50;99.90;;;;;;5063640;28;20547;-79
2022/01/29 03:05:05;;;;;;;33.70;18.77;;;6.50;99.90;;;;;;5065266;28;20472;-79
2022/01/29 03:07:32;;;;;;;34.50;19.60;;;6.60;99.90;;;;;;5064310;28;20456;-79
2022/01/29 03:09:59;;;;;;;29.53;17.60;;;6.50;99.90;;;;;;5063485;28;20447;-79
2022/01/29 03:12:27;;;;;;;32.30;19.93;;;6.50;99.90;;;;;;5062666;28;20458;-79
2022/01/29 03:14:54;;;;;;;34.43;18.63;;;6.40;99.90;;;;;;5051783;28;20458;-80
2022/01/29 03:17:20;;;;;;;30.33;20.07;;;6.50;99.90;;;;;;5048728;28;20448;-80
2022/01/29 03:19:47;;;;;;;29.13;17.93;;;6.50;99.90;;;;;;5090711;23;20502;-78
2022/01/29 03:22:14;;;;;;;29.70;19.20;;;6.50;99.90;;;;;;5034347;28;20493;-80
2022/01/29 03:24:41;;;;;;;25.37;17.63;;;6.60;99.90;;;;;;5029526;28;20886;-80
2022/01/29 03:27:08;;;;;;;27.80;18.10;;;6.50;99.90;;;;;;5036537;28;20451;-80
2022/01/29 03:29:36;;;;;;;34.30;18.90;;;6.50;99.90;;;;;;5024808;28;20476;-80
2022/01/29 03:32:03;;;;;;;32.47;19.07;;;6.60;99.90;;;;;;5017457;28;20460;-81
2022/01/29 03:34:30;;;;;;;26.77;16.80;;;6.60;99.90;;;;;;5016150;28;20546;-82
2022/01/29 03:36:57;;;;;;;28.83;18.53;;;6.60;99.90;;;;;;5018597;28;20452;-79
2022/01/29 03:39:26;;;;;;;28.73;17.93;;;6.60;99.90;;;;;;5020677;28;21074;-82
2022/01/29 03:41:54;;;;;;;29.87;18.57;;;6.60;99.90;;;;;;5020139;28;21046;-78
2022/01/29 03:44:21;;;;;;;34.77;18.53;;;6.60;99.90;;;;;;5021923;28;20460;-80
2022/01/29 03:46:49;;;;;;;29.23;17.80;;;6.70;99.90;;;;;;5037034;28;20492;-81
2022/01/29 03:49:16;;;;;;;28.40;18.00;;;6.70;99.90;;;;;;5033242;28;20564;-80
2022/01/29 03:51:42;;;;;;;30.13;18.60;;;6.70;99.90;;;;;;5016689;28;20962;-79
2022/01/29 03:54:09;;;;;;;30.77;18.63;;;6.70;99.90;;;;;;5018466;28;20514;-81
2022/01/29 03:56:36;;;;;;;32.00;18.40;;;6.70;99.90;;;;;;5031234;28;20958;-80
2022/01/29 03:59:04;;;;;;;31.40;18.50;;;6.70;99.90;;;;;;5018189;28;20474;-80
2022/01/29 04:01:30;;;;;;;31.50;19.10;;;6.70;99.90;;;;;;5034404;28;20477;-80
2022/01/29 04:03:59;;;;;;;24.20;16.17;;;6.70;99.90;;;;;;5036017;28;20538;-81
2022/01/29 04:06:26;;;;;;;30.00;18.50;;;6.70;99.90;;;;;;5021724;28;20487;-81
2022/01/29 04:08:53;;;;;;;28.07;17.27;;;6.70;99.90;;;;;;5016482;28;20477;-80
2022/01/29 04:11:22;;;;;;;29.13;16.67;;;6.70;99.90;;;;;;5016883;28;20449;-79
2022/01/29 04:13:49;;;;;;;28.50;17.43;;;6.70;99.90;;;;;;5016135;28;20495;-79
2022/01/29 04:16:17;;;;;;;31.73;17.33;;;6.60;99.90;;;;;;5015861;28;20504;-79
2022/01/29 04:18:44;;;;;;;29.77;20.03;;;6.60;99.90;;;;;;5015315;28;20863;-78
2022/01/29 04:21:12;;;;;;;34.03;19.27;;;6.60;99.90;;;;;;5021184;28;20481;-77
2022/01/29 04:23:39;;;;;;;31.13;17.87;;;6.60;99.90;;;;;;5014818;28;20464;-79
2022/01/29 04:26:06;;;;;;;30.30;18.30;;;6.50;99.90;;;;;;5015644;28;20952;-79
2022/01/29 04:28:37;;;;;;;35.17;20.03;;;6.50;99.90;;;;;;5015349;28;20477;-78
2022/01/29 04:31:10;;;;;;;29.87;19.80;;;6.50;99.90;;;;;;5021320;28;21018;-78
2022/01/29 04:33:37;;;;;;;33.07;18.10;;;6.40;99.90;;;;;;5034506;28;20855;-80
2022/01/29 04:36:05;;;;;;;32.33;19.77;;;6.40;99.90;;;;;;5026362;28;20464;-78
2022/01/29 04:38:34;;;;;;;34.20;20.30;;;6.40;99.90;;;;;;5015406;28;20477;-81
2022/01/29 04:41:04;;;;;;;32.70;19.63;;;6.50;99.90;;;;;;5020829;28;20481;-79
2022/01/29 04:43:31;;;;;;;28.40;17.87;;;6.50;99.90;;;;;;5013969;28;20889;-81
2022/01/29 04:45:58;;;;;;;33.47;21.07;;;6.50;99.90;;;;;;5014963;28;20460;-78
2022/01/29 04:48:25;;;;;;;35.50;21.60;;;6.40;99.90;;;;;;5014028;28;21898;-80
2022/01/29 04:50:52;;;;;;;29.03;16.93;;;6.50;99.90;;;;;;5014216;28;20452;-80
2022/01/29 04:53:18;;;;;;;24.67;17.00;;;6.50;99.90;;;;;;5013971;28;20460;-79
2022/01/29 04:55:48;;;;;;;23.53;16.30;;;6.50;99.90;;;;;;5014535;28;20478;-79
2022/01/29 04:58:15;;;;;;;27.27;16.90;;;6.50;99.90;;;;;;5013671;28;20460;-78
2022/01/29 05:00:41;;;;;;;31.43;18.00;;;6.50;99.90;;;;;;5013327;28;20458;-78
2022/01/29 05:03:11;;;;;;;30.17;16.17;;;6.40;99.90;;;;;;5014323;28;20456;-81
2022/01/29 05:05:38;;;;;;;30.63;18.43;;;6.50;99.90;;;;;;5014118;28;20925;-79
2022/01/29 05:08:05;;;;;;;22.70;15.40;;;6.50;99.90;;;;;;5014358;28;20450;-79
2022/01/29 05:10:34;;;;;;;27.73;17.03;;;6.50;99.90;;;;;;5024788;28;20461;-79
2022/01/29 05:13:05;;;;;;;30.50;16.30;;;6.50;99.90;;;;;;5014255;28;20463;-78
2022/01/29 05:15:39;;;;;;;26.37;16.50;;;6.50;99.90;;;;;;5014134;28;20971;-79
2022/01/29 05:29:06;;;;;;;17.67;12.17;;;6.50;99.90;;;;;;4996493;28;20457;-79
2022/01/29 05:31:33;;;;;;;21.60;13.50;;;6.50;99.90;;;;;;5013895;28;20515;-78
2022/01/29 05:34:01;;;;;;;21.73;13.90;;;6.60;99.90;;;;;;5007921;28;20457;-79
2022/01/29 05:36:28;;;;;;;23.83;15.00;;;6.50;99.90;;;;;;5027011;28;20463;-78
2022/01/29 05:38:55;;;;;;;19.13;13.03;;;6.50;99.90;;;;;;5016868;28;20841;-81
2022/01/29 05:41:22;;;;;;;24.80;15.17;;;6.50;99.90;;;;;;5034769;28;20486;-81
2022/01/29 05:43:49;;;;;;;26.53;15.70;;;6.50;99.90;;;;;;5020763;28;20516;-81
2022/01/29 05:46:18;;;;;;;19.37;13.73;;;6.60;99.90;;;;;;5009273;28;20887;-82
2022/01/29 05:48:45;;;;;;;30.17;16.00;;;6.60;99.90;;;;;;5017767;28;20500;-80
2022/01/29 05:51:12;;;;;;;28.23;14.40;;;6.60;99.90;;;;;;5030375;28;20453;-82
2022/01/29 05:53:39;;;;;;;25.57;16.20;;;6.60;99.90;;;;;;5017989;28;20471;-80
2022/01/29 05:56:07;;;;;;;27.83;17.03;;;6.60;99.90;;;;;;5020441;28;20480;-80
2022/01/29 05:58:34;;;;;;;22.73;15.70;;;6.70;99.90;;;;;;5019342;28;20552;-80
2022/01/29 06:01:01;;;;;;;25.50;16.10;;;6.70;99.90;;;;;;5020979;28;20522;-80
2022/01/29 06:03:29;;;;;;;23.27;14.60;;;6.70;99.90;;;;;;5020734;28;20445;-81
2022/01/29 06:05:56;;;;;;;25.53;15.97;;;6.70;99.90;;;;;;5030705;28;20465;-82
2022/01/29 06:08:23;;;;;;;24.57;15.10;;;6.80;99.90;;;;;;5021458;28;22215;-80
2022/01/29 06:10:50;;;;;;;26.83;16.80;;;6.80;99.90;;;;;;5021362;28;20444;-82
2022/01/29 06:13:17;;;;;;;24.00;16.07;;;6.80;99.90;;;;;;5020951;28;20455;-82
2022/01/29 06:15:46;;;;;;;26.93;15.67;;;6.80;99.90;;;;;;5020577;28;20516;-82
2022/01/29 06:18:16;;;;;;;22.70;14.20;;;6.80;99.90;;;;;;5002413;28;20457;-80
2022/01/29 06:20:45;;;;;;;26.93;16.70;;;6.80;99.90;;;;;;5019328;28;20497;-81
2022/01/29 06:23:13;;;;;;;30.53;17.90;;;6.80;99.90;;;;;;5019980;28;20488;-82
2022/01/29 06:25:40;;;;;;;25.77;15.40;;;6.80;99.90;;;;;;5040428;28;20492;-82
2022/01/29 06:28:06;;;;;;;26.20;14.73;;;6.80;99.90;;;;;;5018367;28;20483;-82
2022/01/29 06:30:33;;;;;;;26.47;16.07;;;6.80;99.90;;;;;;5020919;28;20476;-82
2022/01/29 06:33:07;;;;;;;22.10;15.80;;;6.90;99.90;;;;;;5035438;28;20459;-80
2022/01/29 06:35:34;;;;;;;23.27;15.33;;;6.90;99.90;;;;;;5035355;28;20490;-81
2022/01/29 06:38:03;;;;;;;25.30;17.33;;;6.90;99.90;;;;;;5025728;28;20493;-81
2022/01/29 06:40:29;;;;;;;26.00;16.80;;;6.90;99.90;;;;;;5020822;28;20480;-80
2022/01/29 06:42:57;;;;;;;30.37;17.97;;;6.90;99.90;;;;;;5034281;28;20495;-82
2022/01/29 06:45:23;;;;;;;24.27;16.13;;;6.90;99.90;;;;;;5035350;28;20454;-82
2022/01/29 06:47:51;;;;;;;24.03;16.23;;;6.90;99.90;;;;;;5037629;28;20464;-81
2022/01/29 06:50:18;;;;;;;32.53;16.90;;;6.90;99.90;;;;;;5020521;28;20479;-81
2022/01/29 06:52:44;;;;;;;30.20;17.73;;;7.00;99.90;;;;;;5018472;28;20453;-80
2022/01/29 06:55:13;;;;;;;26.60;16.90;;;7.00;99.90;;;;;;5010241;28;20457;-80
2022/01/29 06:57:39;;;;;;;31.20;18.13;;;7.00;99.90;;;;;;5019246;28;21069;-79
2022/01/29 07:00:08;;;;;;;28.77;18.53;;;7.00;99.90;;;;;;5018260;28;20477;-80
2022/01/29 07:02:35;;;;;;;21.90;14.90;;;7.00;99.90;;;;;;5019857;28;20480;-80
2022/01/29 07:05:02;;;;;;;28.70;17.07;;;7.00;99.90;;;;;;5010420;28;20561;-80
2022/01/29 07:07:29;;;;;;;25.60;17.90;;;7.10;99.90;;;;;;5018718;28;20449;-81
2022/01/29 07:09:56;;;;;;;25.83;16.70;;;7.10;99.90;;;;;;5018803;28;20480;-80
2022/01/29 07:12:24;;;;;;;24.40;17.40;;;7.10;99.90;;;;;;5018725;28;20484;-81
2022/01/29 07:14:51;;;;;;;29.07;19.07;;;7.10;99.90;;;;;;5030257;28;20463;-80
2022/01/29 07:17:22;;;;;;;27.60;18.93;;;7.10;99.90;;;;;;5039132;28;20456;-80
2022/01/29 07:19:50;;;;;;;28.90;18.60;;;7.10;99.90;;;;;;5038040;28;20551;-80
2022/01/29 07:22:18;;;;;;;23.67;16.30;;;7.10;99.90;;;;;;5028674;28;20497;-80
2022/01/29 07:24:46;;;;;;;29.03;17.87;;;7.10;99.90;;;;;;5023292;28;20472;-80
2022/01/29 07:27:13;;;;;;;23.50;17.07;;;7.20;99.90;;;;;;5022790;28;20971;-81
2022/01/29 07:29:41;;;;;;;24.60;18.30;;;7.20;99.90;;;;;;5038715;28;20476;-81
2022/01/29 07:32:09;;;;;;;28.27;17.50;;;7.20;99.90;;;;;;5024780;28;20837;-80
2022/01/29 07:34:36;;;;;;;30.33;19.90;;;7.20;99.90;;;;;;5015713;28;20979;-81
2022/01/29 07:37:03;;;;;;;29.03;19.23;;;7.20;99.90;;;;;;5014671;28;20480;-80
2022/01/29 07:39:30;;;;;;;29.30;19.30;;;7.30;99.90;;;;;;5009615;28;20473;-78
2022/01/29 07:41:57;;;;;;;26.93;18.53;;;7.30;99.90;;;;;;5016979;28;20493;-79
2022/01/29 07:44:24;;;;;;;33.60;19.77;;;7.40;99.90;;;;;;5015397;28;20454;-80
2022/01/29 07:46:52;;;;;;;29.53;19.23;;;7.30;99.90;;;;;;5014912;28;20463;-80
2022/01/29 07:49:20;;;;;;;34.20;22.60;;;7.40;99.90;;;;;;5012447;28;21002;-79
2022/01/29 07:51:46;;;;;;;30.50;21.30;;;7.30;99.90;;;;;;5007871;28;20461;-81
2022/01/29 07:54:13;;;;;;;32.53;19.37;;;7.40;99.90;;;;;;5015453;28;20806;-81
2022/01/29 07:56:40;;;;;;;33.87;22.07;;;7.40;99.90;;;;;;5012289;28;20526;-80
2022/01/29 07:59:07;;;;;;;32.10;20.67;;;7.40;99.90;;;;;;5009434;28;20845;-81
2022/01/29 08:01:34;;;;;;;33.13;21.07;;;7.40;99.90;;;;;;5020615;28;20450;-81
2022/01/29 08:04:02;;;;;;;33.67;20.30;;;7.40;99.90;;;;;;5012149;28;20832;-80
2022/01/29 08:06:30;;;;;;;32.10;20.60;;;7.40;99.90;;;;;;5005859;28;20821;-80
2022/01/29 08:08:57;;;;;;;29.80;21.27;;;7.50;99.90;;;;;;5007281;28;20988;-82
2022/01/29 08:11:25;;;;;;;32.17;21.13;;;7.50;99.90;;;;;;5015669;28;20456;-81
2022/01/29 08:13:52;;;;;;;33.23;20.53;;;7.50;99.90;;;;;;5007604;28;20545;-80
2022/01/29 08:16:18;;;;;;;31.63;21.13;;;7.60;99.90;;;;;;5012917;28;20450;-79
2022/01/29 08:18:46;;;;;;;27.43;18.20;;;7.60;99.90;;;;;;5011986;28;20568;-80
2022/01/29 08:21:14;;;;;;;33.80;22.80;;;7.60;99.90;;;;;;5011578;28;20506;-82
2022/01/29 08:23:42;;;;;;;26.40;18.17;;;7.60;99.90;;;;;;5019051;28;20520;-81
2022/01/29 08:26:09;;;;;;;30.63;20.30;;;7.60;99.90;;;;;;5025124;28;20481;-83
2022/01/29 08:28:36;;;;;;;32.30;20.43;;;7.70;99.90;;;;;;5009541;28;21017;-83
2022/01/29 08:31:03;;;;;;;32.73;22.27;;;7.70;99.90;;;;;;5024222;28;20475;-83
2022/01/29 08:33:30;;;;;;;28.60;18.90;;;7.80;99.90;;;;;;5018158;28;20522;-81
2022/01/29 08:35:58;;;;;;;23.93;16.07;;;7.80;99.90;;;;;;5013378;28;20542;-83
2022/01/29 08:38:27;;;;;;;32.50;19.80;;;7.90;99.90;;;;;;5007019;28;20470;-83
2022/01/29 08:40:55;;;;;;;28.27;16.93;;;7.80;99.90;;;;;;5022252;28;20491;-81
2022/01/29 08:43:22;;;;;;;22.07;15.57;;;7.90;99.90;;;;;;5025164;28;20596;-84
2022/01/29 08:45:50;;;;;;;24.37;17.70;;;7.90;99.90;;;;;;5025823;28;20957;-85
2022/01/29 08:48:17;;;;;;;21.97;16.83;;;7.90;99.90;;;;;;5018844;28;20454;-84
2022/01/29 08:50:44;;;;;;;22.93;16.70;;;8.00;99.90;;;;;;5028502;28;20822;-83
2022/01/29 08:53:11;;;;;;;22.07;16.40;;;8.00;99.90;;;;;;5039413;28;20498;-84
2022/01/29 08:55:40;;;;;;;24.03;16.77;;;8.10;99.90;;;;;;5028412;28;20460;-83
2022/01/29 08:58:07;;;;;;;24.30;16.07;;;8.10;99.90;;;;;;5018968;28;20468;-84
2022/01/29 09:00:35;;;;;;;25.27;17.77;;;8.10;99.90;;;;;;5018011;28;20552;-82
2022/01/29 09:03:02;;;;;;;23.67;17.07;;;7.90;99.90;;;;;;5019011;28;20957;-83
2022/01/29 09:05:29;;;;;;;18.40;14.70;;;7.90;99.90;;;;;;5027126;28;20464;-82
2022/01/29 09:07:55;;;;;;;21.67;15.03;;;7.90;99.90;;;;;;5025526;28;20454;-81
2022/01/29 09:10:23;;;;;;;19.90;14.97;;;8.00;99.90;;;;;;5018053;28;20488;-81
2022/01/29 09:12:51;;;;;;;24.00;17.30;;;8.00;99.90;;;;;;5018141;28;20500;-80
2022/01/29 09:15:17;;;;;;;20.60;14.50;;;7.90;99.90;;;;;;5018232;28;20908;-80
2022/01/29 09:17:44;;;;;;;24.60;16.03;;;8.00;99.90;;;;;;5017956;28;20456;-81
2022/01/29 09:20:12;;;;;;;20.97;16.10;;;8.00;99.90;;;;;;5047230;23;20828;-85
2022/01/29 09:22:39;;;;;;;20.47;15.27;;;8.00;99.90;;;;;;5044122;28;20473;-82
2022/01/29 09:25:07;;;;;;;25.40;17.93;;;8.00;99.90;;;;;;5053276;28;20433;-84
2022/01/29 09:27:34;;;;;;;18.97;14.80;;;7.90;99.90;;;;;;5028541;28;20872;-84
2022/01/29 09:30:03;;;;;;;18.40;13.87;;;8.00;99.90;;;;;;5034663;28;21088;-85
2022/01/29 09:32:30;;;;;;;20.90;15.60;;;8.00;99.90;;;;;;5039462;28;20457;-84
2022/01/29 09:34:57;;;;;;;19.40;15.00;;;8.00;99.90;;;;;;5038182;28;20969;-84
2022/01/29 09:37:24;;;;;;;20.07;14.90;;;8.10;99.90;;;;;;5040942;28;20482;-84
2022/01/29 09:39:51;;;;;;;20.63;15.77;;;8.10;99.90;;;;;;5041205;28;20468;-85
2022/01/29 09:42:19;;;;;;;20.27;15.70;;;8.10;99.90;;;;;;5038971;28;20488;-84
2022/01/29 09:44:48;;;;;;;20.03;14.70;;;8.10;99.90;;;;;;5041121;28;20445;-85
2022/01/29 09:47:17;;;;;;;16.90;13.63;;;8.20;99.90;;;;;;5037539;28;20457;-82
2022/01/29 09:49:45;;;;;;;16.67;13.00;;;8.20;99.90;;;;;;5035890;28;20472;-84
2022/01/29 09:52:12;;;;;;;18.57;14.63;;;8.20;99.90;;;;;;5036456;28;20606;-85
2022/01/29 09:54:40;;;;;;;20.60;15.53;;;8.30;99.90;;;;;;5038599;28;20464;-83
2022/01/29 09:57:07;;;;;;;18.73;14.73;;;8.30;99.90;;;;;;5038103;28;20524;-84
2022/01/29 09:59:34;;;;;;;17.03;14.13;;;8.30;99.90;;;;;;5033846;28;20480;-83
2022/01/29 10:02:00;;;;;;;16.73;14.93;;;8.30;99.90;;;;;;5039852;28;20457;-85
2022/01/29 10:04:44;;;;;;;18.03;14.17;;;8.30;99.90;;;;;;5039789;28;20580;-83
2022/01/29 10:07:16;;;;;;;17.50;13.90;;;8.30;99.90;;;;;;5028428;28;20548;-83
2022/01/29 10:09:43;;;;;;;27.57;18.50;;;8.30;99.90;;;;;;5028809;28;20472;-83
2022/01/29 10:12:21;;;;;;;18.60;15.37;;;8.30;99.90;;;;;;5036780;28;20452;-84
2022/01/29 10:14:50;;;;;;;20.37;15.57;;;8.40;99.90;;;;;;5039193;28;20464;-84
2022/01/29 10:17:39;;;;;;;22.10;15.30;;;8.40;99.90;;;;;;5041457;28;20976;-85
2022/01/29 10:20:16;;;;;;;18.40;14.83;;;8.40;99.90;;;;;;5026773;28;20479;-85
2022/01/29 10:22:46;;;;;;;22.07;15.93;;;8.30;99.90;;;;;;5038867;28;20505;-85
2022/01/29 10:25:15;;;;;;;20.00;15.00;;;8.30;99.90;;;;;;5038042;28;20464;-85
2022/01/29 10:28:00;;;;;;;21.47;16.87;;;8.40;99.90;;;;;;5034505;28;21030;-84
2022/01/29 10:30:30;;;;;;;22.90;16.73;;;8.40;99.90;;;;;;5040310;28;20493;-84
2022/01/29 10:33:16;;;;;;;22.67;17.40;;;8.40;99.90;;;;;;5045233;28;20480;-84
2022/01/29 10:35:45;;;;;;;24.23;16.87;;;8.50;99.90;;;;;;5048319;28;20464;-84
2022/01/29 10:38:11;;;;;;;21.73;16.50;;;8.50;99.90;;;;;;5037418;28;20450;-84
2022/01/29 10:40:39;;;;;;;19.23;16.83;;;8.50;99.90;;;;;;5051080;28;20504;-84
2022/01/29 10:43:06;;;;;;;18.10;13.90;;;8.60;99.90;;;;;;5038230;28;20567;-82
2022/01/29 10:45:34;;;;;;;19.80;15.77;;;8.60;99.90;;;;;;5044838;28;20496;-84
2022/01/29 10:48:01;;;;;;;18.17;13.67;;;8.70;99.90;;;;;;5033866;28;20481;-86
2022/01/29 10:50:28;;;;;;;17.63;12.83;;;8.70;99.90;;;;;;5044472;28;20531;-85
2022/01/29 10:52:57;;;;;;;20.47;15.40;;;8.70;99.90;;;;;;5037882;28;20456;-84
2022/01/29 10:55:24;;;;;;;16.63;13.30;;;8.70;99.90;;;;;;5040884;28;20480;-85
2022/01/29 10:57:51;;;;;;;17.97;13.10;;;8.80;99.90;;;;;;5043658;28;20445;-85
2022/01/29 11:00:20;;;;;;;20.37;13.97;;;8.80;99.90;;;;;;5044122;28;20475;-84
2022/01/29 11:02:48;;;;;;;16.63;12.73;;;8.80;99.90;;;;;;5041858;28;20488;-84
2022/01/29 11:05:15;;;;;;;19.67;14.43;;;8.80;99.90;;;;;;5040797;28;20517;-83
2022/01/29 11:07:46;;;;;;;20.53;14.97;;;8.70;99.90;;;;;;5042986;28;20454;-83
2022/01/29 11:10:14;;;;;;;17.33;13.93;;;8.80;99.90;;;;;;5047616;28;20472;-84
2022/01/29 11:12:44;;;;;;;18.63;13.73;;;8.80;99.90;;;;;;5045481;28;20547;-83
2022/01/29 11:15:11;;;;;;;16.90;13.57;;;8.80;99.90;;;;;;5045714;28;20457;-84
2022/01/29 11:17:38;;;;;;;17.57;15.03;;;8.80;99.90;;;;;;5043008;28;20462;-85
2022/01/29 11:20:06;;;;;;;17.60;12.87;;;8.80;99.90;;;;;;5042313;28;20484;-85
2022/01/29 11:22:37;;;;;;;17.43;14.20;;;8.80;99.90;;;;;;5041081;28;20461;-85
2022/01/29 11:25:06;;;;;;;17.57;14.80;;;8.80;99.90;;;;;;5041654;28;20509;-85
2022/01/29 11:27:37;;;;;;;15.70;13.70;;;8.90;99.90;;;;;;5042730;28;20483;-85
2022/01/29 11:30:11;;;;;;;18.60;15.17;;;8.90;99.90;;;;;;5031084;28;20480;-85
2022/01/29 11:32:41;;;;;;;18.70;15.00;;;8.90;99.90;;;;;;5052864;28;20428;-82
2022/01/29 11:35:17;;;;;;;18.20;13.37;;;9.00;99.90;;;;;;5045550;28;20442;-83
2022/01/29 11:38:07;;;;;;;16.83;13.00;;;9.00;99.90;;;;;;5044863;28;20455;-84
2022/01/29 11:40:36;;;;;;;16.40;12.27;;;9.00;99.90;;;;;;5045873;28;20469;-84
2022/01/29 11:43:26;;;;;;;15.83;12.67;;;9.00;99.90;;;;;;5042094;28;20567;-86
2022/01/29 11:45:57;;;;;;;15.00;12.37;;;9.00;99.90;;;;;;5039432;28;20457;-83
2022/01/29 11:48:58;;;;;;;18.20;13.30;;;9.00;99.90;;;;;;5032445;28;20461;-84
2022/01/29 11:51:44;;;;;;;18.40;12.53;;;9.10;99.90;;;;;;5038916;28;20475;-83
2022/01/29 11:54:14;;;;;;;15.57;10.97;;;9.00;99.90;;;;;;5045957;28;20475;-83
2022/01/29 11:56:42;;;;;;;14.07;10.43;;;9.00;99.90;;;;;;5037545;28;20456;-84
2022/01/29 11:59:33;;;;;;;14.83;11.70;;;9.10;99.90;;;;;;5049107;28;20478;-84
2022/01/29 12:02:04;;;;;;;12.53;11.23;;;9.10;99.90;;;;;;5032677;28;20461;-84
2022/01/29 12:05:03;;;;;;;12.70;10.63;;;9.20;99.90;;;;;;5035971;28;20736;-82
2022/01/29 12:07:33;;;;;;;11.17;9.50;;;9.30;99.90;;;;;;5040694;28;20485;-83
2022/01/29 12:10:04;;;;;;;12.70;9.77;;;9.40;99.90;;;;;;5030138;28;20484;-82
2022/01/29 12:12:34;;;;;;;11.70;9.53;;;9.50;99.90;;;;;;5034732;28;20476;-83
2022/01/29 12:15:38;;;;;;;14.13;8.73;;;9.60;99.90;;;;;;5045419;28;20471;-84
2022/01/29 12:18:20;;;;;;;14.17;10.13;;;9.80;99.90;;;;;;5038548;28;20459;-84
2022/01/29 12:20:47;;;;;;;11.27;8.60;;;9.80;99.90;;;;;;5047038;28;20484;-85
2022/01/29 12:23:14;;;;;;;10.23;8.23;;;9.90;99.90;;;;;;5047819;28;20486;-85
2022/01/29 12:25:41;;;;;;;9.10;7.73;;;9.90;99.90;;;;;;5047624;28;20474;-83
2022/01/29 12:28:10;;;;;;;11.83;7.10;;;9.90;99.90;;;;;;5041391;28;20493;-84
2022/01/29 12:30:39;;;;;;;8.13;7.00;;;9.80;99.90;;;;;;5043354;28;20701;-84
2022/01/29 12:33:09;;;;;;;10.17;7.60;;;9.80;99.90;;;;;;5042552;28;20526;-82
2022/01/29 12:35:39;;;;;;;7.70;6.90;;;9.80;99.90;;;;;;5039877;28;20457;-82
2022/01/29 12:38:08;;;;;;;7.40;6.10;;;9.80;99.90;;;;;;5037732;28;20446;-83
2022/01/29 12:40:39;;;;;;;10.30;7.50;;;9.70;99.90;;;;;;5033709;28;20488;-84
2022/01/29 12:43:21;;;;;;;7.00;6.13;;;9.80;99.90;;;;;;5031736;28;20473;-83
2022/01/29 12:45:50;;;;;;;7.93;6.20;;;9.90;99.90;;;;;;5032022;28;20450;-83
2022/01/29 12:48:17;;;;;;;15.70;6.27;;;9.90;99.90;;;;;;5041866;28;20446;-83
2022/01/29 12:50:45;;;;;;;8.07;6.87;;;9.90;99.90;;;;;;5037813;28;20475;-83
2022/01/29 12:53:15;;;;;;;8.07;7.10;;;9.90;99.90;;;;;;5042108;28;20526;-83
2022/01/29 12:55:42;;;;;;;11.10;7.20;;;9.90;99.90;;;;;;5038478;28;20456;-84